sensor_id;sensor_type;location;lat;lon;timestamp;P1;durP1;ratioP1;P2;durP2;ratioP2
36001;SDS011;22070;50.922;5.430;2022-09-13T00:00:07;11.43;;;6.43;;
36001;SDS011;22070;50.922;5.430;2022-09-13T00:02:33;10.47;;;6.20;;
36001;SDS011;22070;50.922;5.430;2022-09-13T00:04:58;9.57;;;5.72;;
36001;SDS011;22070;50.922;5.430;2022-09-13T00:07:24;9.10;;;5.43;;
36001;SDS011;22070;50.922;5.430;2022-09-13T00:09:49;13.63;;;6.27;;
36001;SDS011;22070;50.922;5.430;2022-09-13T00:12:15;6.97;;;5.20;;
36001;SDS011;22070;50.922;5.430;2022-09-13T00:14:41;5.90;;;4.33;;
36001;SDS011;22070;50.922;5.430;2022-09-13T00:17:06;10.83;;;5.70;;
36001;SDS011;22070;50.922;5.430;2022-09-13T00:19:32;8.50;;;5.50;;
36001;SDS011;22070;50.922;5.430;2022-09-13T00:21:58;10.37;;;5.97;;
36001;SDS011;22070;50.922;5.430;2022-09-13T00:24:23;9.63;;;5.03;;
36001;SDS011;22070;50.922;5.430;2022-09-13T00:26:49;5.93;;;5.00;;
36001;SDS011;22070;50.922;5.430;2022-09-13T00:29:15;16.17;;;5.40;;
36001;SDS011;22070;50.922;5.430;2022-09-13T00:31:40;9.35;;;5.30;;
36001;SDS011;22070;50.922;5.430;2022-09-13T00:34:06;7.97;;;5.03;;
36001;SDS011;22070;50.922;5.430;2022-09-13T00:36:32;7.88;;;5.57;;
36001;SDS011;22070;50.922;5.430;2022-09-13T00:38:58;8.85;;;6.00;;
36001;SDS011;22070;50.922;5.430;2022-09-13T00:41:25;8.18;;;5.43;;
36001;SDS011;22070;50.922;5.430;2022-09-13T00:51:47;10.35;;;5.85;;
36001;SDS011;22070;50.922;5.430;2022-09-13T00:54:17;9.93;;;6.35;;
36001;SDS011;22070;50.922;5.430;2022-09-13T00:56:46;11.35;;;6.82;;
36001;SDS011;22070;50.922;5.430;2022-09-13T00:59:21;12.10;;;6.85;;
36001;SDS011;22070;50.922;5.430;2022-09-13T01:01:52;7.65;;;6.53;;
36001;SDS011;22070;50.922;5.430;2022-09-13T01:04:21;8.52;;;6.38;;
36001;SDS011;22070;50.922;5.430;2022-09-13T01:06:49;9.23;;;6.53;;
36001;SDS011;22070;50.922;5.430;2022-09-13T01:09:18;8.82;;;5.78;;
36001;SDS011;22070;50.922;5.430;2022-09-13T01:11:48;12.53;;;6.70;;
36001;SDS011;22070;50.922;5.430;2022-09-13T01:14:24;7.57;;;6.22;;
36001;SDS011;22070;50.922;5.430;2022-09-13T01:16:51;7.80;;;5.65;;
36001;SDS011;22070;50.922;5.430;2022-09-13T01:30:06;11.88;;;6.35;;
36001;SDS011;22070;50.922;5.430;2022-09-13T01:35:40;7.25;;;5.82;;
36001;SDS011;22070;50.922;5.430;2022-09-13T01:46:35;9.35;;;5.70;;
36001;SDS011;22070;50.922;5.430;2022-09-13T01:54:36;7.78;;;6.00;;
36001;SDS011;22070;50.922;5.430;2022-09-13T01:59:53;8.65;;;5.45;;
36001;SDS011;22070;50.922;5.430;2022-09-13T02:04:57;6.78;;;5.78;;
36001;SDS011;22070;50.922;5.430;2022-09-13T02:07:28;9.48;;;5.60;;
36001;SDS011;22070;50.922;5.430;2022-09-13T02:10:23;11.65;;;5.95;;
36001;SDS011;22070;50.922;5.430;2022-09-13T02:13:14;5.93;;;4.80;;
36001;SDS011;22070;50.922;5.430;2022-09-13T02:15:47;7.20;;;5.00;;
36001;SDS011;22070;50.922;5.430;2022-09-13T02:18:19;7.57;;;5.00;;
36001;SDS011;22070;50.922;5.430;2022-09-13T02:20:50;11.95;;;4.93;;
36001;SDS011;22070;50.922;5.430;2022-09-13T02:23:23;6.32;;;4.80;;
36001;SDS011;22070;50.922;5.430;2022-09-13T02:25:55;6.18;;;4.80;;
36001;SDS011;22070;50.922;5.430;2022-09-13T02:28:26;6.90;;;4.68;;
36001;SDS011;22070;50.922;5.430;2022-09-13T02:30:56;6.78;;;4.70;;
36001;SDS011;22070;50.922;5.430;2022-09-13T02:33:25;6.38;;;4.50;;
36001;SDS011;22070;50.922;5.430;2022-09-13T02:38:43;9.38;;;4.68;;
36001;SDS011;22070;50.922;5.430;2022-09-13T02:41:16;8.88;;;5.22;;
36001;SDS011;22070;50.922;5.430;2022-09-13T02:43:52;6.40;;;4.85;;
36001;SDS011;22070;50.922;5.430;2022-09-13T02:51:49;5.80;;;4.60;;
36001;SDS011;22070;50.922;5.430;2022-09-13T02:54:33;9.50;;;4.75;;
36001;SDS011;22070;50.922;5.430;2022-09-13T02:57:10;6.30;;;4.75;;
36001;SDS011;22070;50.922;5.430;2022-09-13T02:59:53;5.85;;;4.82;;
36001;SDS011;22070;50.922;5.430;2022-09-13T03:02:20;8.10;;;4.80;;
36001;SDS011;22070;50.922;5.430;2022-09-13T03:04:49;9.52;;;4.57;;
36001;SDS011;22070;50.922;5.430;2022-09-13T03:07:15;7.13;;;4.45;;
36001;SDS011;22070;50.922;5.430;2022-09-13T03:09:42;6.60;;;4.25;;
36001;SDS011;22070;50.922;5.430;2022-09-13T03:33:16;7.50;;;4.38;;
36001;SDS011;22070;50.922;5.430;2022-09-13T03:35:17;6.90;;;4.20;;
36001;SDS011;22070;50.922;5.430;2022-09-13T03:38:06;6.40;;;4.40;;
36001;SDS011;22070;50.922;5.430;2022-09-13T03:40:47;6.88;;;3.65;;
36001;SDS011;22070;50.922;5.430;2022-09-13T03:43:20;5.65;;;3.83;;
36001;SDS011;22070;50.922;5.430;2022-09-13T03:45:59;4.25;;;3.60;;
36001;SDS011;22070;50.922;5.430;2022-09-13T03:48:29;6.38;;;3.78;;
36001;SDS011;22070;50.922;5.430;2022-09-13T03:50:58;4.97;;;3.95;;
36001;SDS011;22070;50.922;5.430;2022-09-13T03:53:26;4.55;;;3.55;;
36001;SDS011;22070;50.922;5.430;2022-09-13T03:55:54;7.05;;;3.60;;
36001;SDS011;22070;50.922;5.430;2022-09-13T03:58:20;7.73;;;3.70;;
36001;SDS011;22070;50.922;5.430;2022-09-13T04:00:47;4.68;;;3.53;;
36001;SDS011;22070;50.922;5.430;2022-09-13T04:03:13;3.05;;;2.47;;
36001;SDS011;22070;50.922;5.430;2022-09-13T04:05:39;7.40;;;3.42;;
36001;SDS011;22070;50.922;5.430;2022-09-13T04:08:05;5.00;;;3.43;;
36001;SDS011;22070;50.922;5.430;2022-09-13T04:12:59;5.45;;;3.22;;
36001;SDS011;22070;50.922;5.430;2022-09-13T04:15:26;5.13;;;3.60;;
36001;SDS011;22070;50.922;5.430;2022-09-13T04:20:18;10.00;;;3.83;;
36001;SDS011;22070;50.922;5.430;2022-09-13T04:22:54;4.90;;;4.07;;
36001;SDS011;22070;50.922;5.430;2022-09-13T04:25:21;5.15;;;4.10;;
36001;SDS011;22070;50.922;5.430;2022-09-13T04:27:48;9.23;;;4.35;;
36001;SDS011;22070;50.922;5.430;2022-09-13T04:30:19;5.28;;;4.07;;
36001;SDS011;22070;50.922;5.430;2022-09-13T04:32:45;11.02;;;4.50;;
36001;SDS011;22070;50.922;5.430;2022-09-13T04:35:11;5.10;;;3.00;;
36001;SDS011;22070;50.922;5.430;2022-09-13T04:37:37;8.52;;;4.05;;
36001;SDS011;22070;50.922;5.430;2022-09-13T04:40:03;4.75;;;4.25;;
36001;SDS011;22070;50.922;5.430;2022-09-13T04:42:33;6.43;;;4.35;;
36001;SDS011;22070;50.922;5.430;2022-09-13T04:44:58;7.23;;;4.43;;
36001;SDS011;22070;50.922;5.430;2022-09-13T04:47:24;6.17;;;3.00;;
36001;SDS011;22070;50.922;5.430;2022-09-13T04:49:50;5.37;;;4.40;;
36001;SDS011;22070;50.922;5.430;2022-09-13T04:52:15;6.13;;;3.80;;
36001;SDS011;22070;50.922;5.430;2022-09-13T04:54:41;9.23;;;4.38;;
36001;SDS011;22070;50.922;5.430;2022-09-13T04:57:07;7.07;;;3.90;;
36001;SDS011;22070;50.922;5.430;2022-09-13T04:59:33;11.77;;;4.30;;
36001;SDS011;22070;50.922;5.430;2022-09-13T05:01:58;5.13;;;3.80;;
36001;SDS011;22070;50.922;5.430;2022-09-13T05:04:24;9.90;;;4.07;;
36001;SDS011;22070;50.922;5.430;2022-09-13T05:06:50;5.03;;;4.10;;
36001;SDS011;22070;50.922;5.430;2022-09-13T05:09:16;10.88;;;4.35;;
36001;SDS011;22070;50.922;5.430;2022-09-13T05:11:42;5.07;;;4.57;;
36001;SDS011;22070;50.922;5.430;2022-09-13T05:14:08;5.53;;;4.67;;
36001;SDS011;22070;50.922;5.430;2022-09-13T05:16:35;8.40;;;4.22;;
36001;SDS011;22070;50.922;5.430;2022-09-13T05:19:01;5.63;;;4.03;;
36001;SDS011;22070;50.922;5.430;2022-09-13T05:21:27;10.47;;;4.03;;
36001;SDS011;22070;50.922;5.430;2022-09-13T05:23:55;7.60;;;4.65;;
36001;SDS011;22070;50.922;5.430;2022-09-13T05:26:22;7.07;;;4.50;;
36001;SDS011;22070;50.922;5.430;2022-09-13T05:28:49;7.97;;;4.53;;
36001;SDS011;22070;50.922;5.430;2022-09-13T05:31:19;8.20;;;4.17;;
36001;SDS011;22070;50.922;5.430;2022-09-13T05:33:54;6.57;;;4.22;;
36001;SDS011;22070;50.922;5.430;2022-09-13T05:36:21;5.75;;;4.53;;
36001;SDS011;22070;50.922;5.430;2022-09-13T05:38:47;5.60;;;3.80;;
36001;SDS011;22070;50.922;5.430;2022-09-13T05:41:12;6.50;;;3.40;;
36001;SDS011;22070;50.922;5.430;2022-09-13T05:43:38;8.47;;;4.20;;
36001;SDS011;22070;50.922;5.430;2022-09-13T05:48:31;5.28;;;3.78;;
36001;SDS011;22070;50.922;5.430;2022-09-13T05:51:11;4.85;;;4.35;;
36001;SDS011;22070;50.922;5.430;2022-09-13T05:53:48;4.97;;;4.00;;
36001;SDS011;22070;50.922;5.430;2022-09-13T05:56:16;8.68;;;4.10;;
36001;SDS011;22070;50.922;5.430;2022-09-13T05:58:50;6.00;;;4.22;;
36001;SDS011;22070;50.922;5.430;2022-09-13T06:01:17;8.25;;;3.92;;
36001;SDS011;22070;50.922;5.430;2022-09-13T06:03:47;10.27;;;3.90;;
36001;SDS011;22070;50.922;5.430;2022-09-13T06:06:14;9.60;;;4.38;;
36001;SDS011;22070;50.922;5.430;2022-09-13T06:08:40;5.30;;;4.10;;
36001;SDS011;22070;50.922;5.430;2022-09-13T06:11:07;5.65;;;3.70;;
36001;SDS011;22070;50.922;5.430;2022-09-13T06:13:35;8.60;;;3.58;;
36001;SDS011;22070;50.922;5.430;2022-09-13T06:16:02;7.33;;;3.90;;
36001;SDS011;22070;50.922;5.430;2022-09-13T06:18:30;8.50;;;3.88;;
36001;SDS011;22070;50.922;5.430;2022-09-13T06:20:58;5.32;;;3.50;;
36001;SDS011;22070;50.922;5.430;2022-09-13T06:23:27;4.95;;;3.55;;
36001;SDS011;22070;50.922;5.430;2022-09-13T06:25:59;3.33;;;3.03;;
36001;SDS011;22070;50.922;5.430;2022-09-13T06:28:27;6.72;;;3.30;;
36001;SDS011;22070;50.922;5.430;2022-09-13T06:30:58;4.47;;;3.20;;
36001;SDS011;22070;50.922;5.430;2022-09-13T06:33:24;3.97;;;3.33;;
36001;SDS011;22070;50.922;5.430;2022-09-13T06:35:50;9.03;;;3.93;;
36001;SDS011;22070;50.922;5.430;2022-09-13T06:38:15;9.17;;;4.20;;
36001;SDS011;22070;50.922;5.430;2022-09-13T06:40:41;3.70;;;3.40;;
36001;SDS011;22070;50.922;5.430;2022-09-13T06:43:07;3.88;;;3.20;;
36001;SDS011;22070;50.922;5.430;2022-09-13T06:45:32;9.07;;;3.63;;
36001;SDS011;22070;50.922;5.430;2022-09-13T06:47:58;5.43;;;3.90;;
36001;SDS011;22070;50.922;5.430;2022-09-13T06:50:24;5.87;;;3.97;;
36001;SDS011;22070;50.922;5.430;2022-09-13T06:52:49;6.13;;;4.30;;
36001;SDS011;22070;50.922;5.430;2022-09-13T06:55:15;11.17;;;4.23;;
36001;SDS011;22070;50.922;5.430;2022-09-13T06:57:41;4.70;;;3.60;;
36001;SDS011;22070;50.922;5.430;2022-09-13T07:00:07;8.40;;;3.87;;
36001;SDS011;22070;50.922;5.430;2022-09-13T07:02:33;7.22;;;4.38;;
36001;SDS011;22070;50.922;5.430;2022-09-13T07:04:59;6.33;;;3.87;;
36001;SDS011;22070;50.922;5.430;2022-09-13T07:07:24;10.13;;;4.40;;
36001;SDS011;22070;50.922;5.430;2022-09-13T07:09:50;5.63;;;4.23;;
36001;SDS011;22070;50.922;5.430;2022-09-13T07:12:16;6.00;;;4.47;;
36001;SDS011;22070;50.922;5.430;2022-09-13T07:14:41;7.87;;;4.00;;
36001;SDS011;22070;50.922;5.430;2022-09-13T07:17:07;8.47;;;3.60;;
36001;SDS011;22070;50.922;5.430;2022-09-13T07:19:32;7.23;;;3.83;;
36001;SDS011;22070;50.922;5.430;2022-09-13T07:21:58;7.00;;;3.93;;
36001;SDS011;22070;50.922;5.430;2022-09-13T07:24:24;4.60;;;3.63;;
36001;SDS011;22070;50.922;5.430;2022-09-13T07:26:51;6.20;;;3.40;;
36001;SDS011;22070;50.922;5.430;2022-09-13T07:29:18;5.75;;;4.00;;
36001;SDS011;22070;50.922;5.430;2022-09-13T07:31:48;8.35;;;3.80;;
36001;SDS011;22070;50.922;5.430;2022-09-13T07:34:16;5.30;;;3.42;;
36001;SDS011;22070;50.922;5.430;2022-09-13T07:36:44;6.22;;;3.70;;
36001;SDS011;22070;50.922;5.430;2022-09-13T07:39:11;6.75;;;4.05;;
36001;SDS011;22070;50.922;5.430;2022-09-13T07:41:37;4.93;;;3.38;;
36001;SDS011;22070;50.922;5.430;2022-09-13T07:44:03;4.83;;;3.07;;
36001;SDS011;22070;50.922;5.430;2022-09-13T07:46:30;5.55;;;3.58;;
36001;SDS011;22070;50.922;5.430;2022-09-13T07:48:58;4.45;;;2.97;;
36001;SDS011;22070;50.922;5.430;2022-09-13T07:51:25;5.97;;;3.30;;
36001;SDS011;22070;50.922;5.430;2022-09-13T07:53:56;8.20;;;3.70;;
36001;SDS011;22070;50.922;5.430;2022-09-13T07:56:30;5.20;;;2.92;;
36001;SDS011;22070;50.922;5.430;2022-09-13T07:58:58;7.22;;;3.35;;
36001;SDS011;22070;50.922;5.430;2022-09-13T08:01:26;7.22;;;3.28;;
36001;SDS011;22070;50.922;5.430;2022-09-13T08:03:53;4.45;;;3.10;;
36001;SDS011;22070;50.922;5.430;2022-09-13T08:06:24;5.60;;;2.88;;
36001;SDS011;22070;50.922;5.430;2022-09-13T08:08:51;4.45;;;3.20;;
36001;SDS011;22070;50.922;5.430;2022-09-13T08:11:19;5.30;;;2.78;;
36001;SDS011;22070;50.922;5.430;2022-09-13T08:13:45;7.57;;;2.80;;
36001;SDS011;22070;50.922;5.430;2022-09-13T08:18:41;9.30;;;3.00;;
36001;SDS011;22070;50.922;5.430;2022-09-13T08:21:11;4.78;;;2.50;;
36001;SDS011;22070;50.922;5.430;2022-09-13T08:23:37;2.92;;;2.50;;
36001;SDS011;22070;50.922;5.430;2022-09-13T08:26:03;2.03;;;1.87;;
36001;SDS011;22070;50.922;5.430;2022-09-13T08:28:30;3.28;;;2.60;;
36001;SDS011;22070;50.922;5.430;2022-09-13T08:31:01;6.47;;;3.05;;
36001;SDS011;22070;50.922;5.430;2022-09-13T08:33:31;3.08;;;2.42;;
36001;SDS011;22070;50.922;5.430;2022-09-13T08:35:57;3.80;;;2.42;;
36001;SDS011;22070;50.922;5.430;2022-09-13T08:38:23;2.63;;;2.07;;
36001;SDS011;22070;50.922;5.430;2022-09-13T08:40:59;4.50;;;2.63;;
36001;SDS011;22070;50.922;5.430;2022-09-13T08:43:55;4.90;;;2.75;;
36001;SDS011;22070;50.922;5.430;2022-09-13T08:46:41;5.22;;;2.60;;
36001;SDS011;22070;50.922;5.430;2022-09-13T08:50:12;3.38;;;2.03;;
36001;SDS011;22070;50.922;5.430;2022-09-13T08:54:53;5.45;;;2.65;;
36001;SDS011;22070;50.922;5.430;2022-09-13T08:57:29;5.47;;;2.95;;
36001;SDS011;22070;50.922;5.430;2022-09-13T09:00:03;5.38;;;2.92;;
36001;SDS011;22070;50.922;5.430;2022-09-13T09:02:53;3.90;;;2.55;;
36001;SDS011;22070;50.922;5.430;2022-09-13T09:05:34;4.63;;;2.53;;
36001;SDS011;22070;50.922;5.430;2022-09-13T09:10:55;3.38;;;2.63;;
36001;SDS011;22070;50.922;5.430;2022-09-13T09:13:25;4.88;;;3.03;;
36001;SDS011;22070;50.922;5.430;2022-09-13T09:15:59;3.67;;;2.40;;
36001;SDS011;22070;50.922;5.430;2022-09-13T09:18:31;4.13;;;2.40;;
36001;SDS011;22070;50.922;5.430;2022-09-13T09:21:02;5.78;;;2.78;;
36001;SDS011;22070;50.922;5.430;2022-09-13T09:23:53;7.00;;;3.00;;
36001;SDS011;22070;50.922;5.430;2022-09-13T09:26:23;5.72;;;2.58;;
36001;SDS011;22070;50.922;5.430;2022-09-13T09:37:24;3.60;;;2.58;;
36001;SDS011;22070;50.922;5.430;2022-09-13T09:39:53;8.75;;;2.83;;
36001;SDS011;22070;50.922;5.430;2022-09-13T09:42:28;5.30;;;3.28;;
36001;SDS011;22070;50.922;5.430;2022-09-13T09:45:02;4.82;;;2.88;;
36001;SDS011;22070;50.922;5.430;2022-09-13T09:47:46;4.65;;;2.70;;
36001;SDS011;22070;50.922;5.430;2022-09-13T09:50:15;5.63;;;2.95;;
36001;SDS011;22070;50.922;5.430;2022-09-13T09:52:45;6.30;;;2.83;;
36001;SDS011;22070;50.922;5.430;2022-09-13T09:58:40;7.72;;;3.00;;
36001;SDS011;22070;50.922;5.430;2022-09-13T10:04:03;3.42;;;2.45;;
36001;SDS011;22070;50.922;5.430;2022-09-13T10:06:32;3.13;;;2.90;;
36001;SDS011;22070;50.922;5.430;2022-09-13T10:08:59;5.35;;;3.03;;
36001;SDS011;22070;50.922;5.430;2022-09-13T10:11:42;10.73;;;3.30;;
36001;SDS011;22070;50.922;5.430;2022-09-13T10:17:16;3.60;;;2.60;;
36001;SDS011;22070;50.922;5.430;2022-09-13T10:20:17;6.93;;;2.85;;
36001;SDS011;22070;50.922;5.430;2022-09-13T10:22:45;5.15;;;2.90;;
36001;SDS011;22070;50.922;5.430;2022-09-13T10:25:35;6.45;;;2.55;;
36001;SDS011;22070;50.922;5.430;2022-09-13T10:28:01;5.65;;;2.67;;
36001;SDS011;22070;50.922;5.430;2022-09-13T10:30:37;7.63;;;2.60;;
36001;SDS011;22070;50.922;5.430;2022-09-13T10:36:06;2.95;;;2.28;;
36001;SDS011;22070;50.922;5.430;2022-09-13T10:38:51;4.43;;;2.78;;
36001;SDS011;22070;50.922;5.430;2022-09-13T10:41:32;3.20;;;2.42;;
36001;SDS011;22070;50.922;5.430;2022-09-13T10:44:03;5.00;;;2.50;;
36001;SDS011;22070;50.922;5.430;2022-09-13T10:46:33;3.63;;;2.67;;
36001;SDS011;22070;50.922;5.430;2022-09-13T10:49:04;4.60;;;2.42;;
36001;SDS011;22070;50.922;5.430;2022-09-13T10:51:36;3.53;;;2.70;;
36001;SDS011;22070;50.922;5.430;2022-09-13T10:56:34;4.15;;;2.35;;
36001;SDS011;22070;50.922;5.430;2022-09-13T10:59:14;5.80;;;2.80;;
36001;SDS011;22070;50.922;5.430;2022-09-13T11:07:56;3.70;;;2.75;;
36001;SDS011;22070;50.922;5.430;2022-09-13T11:10:48;3.25;;;2.10;;
36001;SDS011;22070;50.922;5.430;2022-09-13T11:24:14;4.22;;;2.10;;
36001;SDS011;22070;50.922;5.430;2022-09-13T11:27:03;3.40;;;1.85;;
36001;SDS011;22070;50.922;5.430;2022-09-13T11:29:56;3.20;;;1.90;;
36001;SDS011;22070;50.922;5.430;2022-09-13T11:35:23;3.20;;;2.00;;
36001;SDS011;22070;50.922;5.430;2022-09-13T11:51:26;6.50;;;2.20;;
36001;SDS011;22070;50.922;5.430;2022-09-13T11:54:15;2.30;;;2.17;;
36001;SDS011;22070;50.922;5.430;2022-09-13T11:56:56;5.45;;;2.13;;
36001;SDS011;22070;50.922;5.430;2022-09-13T12:04:58;6.15;;;2.20;;
36001;SDS011;22070;50.922;5.430;2022-09-13T12:07:36;4.35;;;2.03;;
36001;SDS011;22070;50.922;5.430;2022-09-13T12:10:14;3.80;;;2.20;;
36001;SDS011;22070;50.922;5.430;2022-09-13T12:12:41;4.43;;;2.03;;
36001;SDS011;22070;50.922;5.430;2022-09-13T12:17:57;2.70;;;1.80;;
36001;SDS011;22070;50.922;5.430;2022-09-13T12:20:56;3.38;;;2.00;;
36001;SDS011;22070;50.922;5.430;2022-09-13T12:23:30;3.20;;;1.67;;
36001;SDS011;22070;50.922;5.430;2022-09-13T12:31:46;5.68;;;2.20;;
36001;SDS011;22070;50.922;5.430;2022-09-13T12:34:17;3.05;;;1.92;;
36001;SDS011;22070;50.922;5.430;2022-09-13T12:37:01;2.95;;;2.30;;
36001;SDS011;22070;50.922;5.430;2022-09-13T12:40:07;5.70;;;2.22;;
36001;SDS011;22070;50.922;5.430;2022-09-13T12:46:49;2.60;;;2.28;;
36001;SDS011;22070;50.922;5.430;2022-09-13T12:51:53;6.15;;;2.45;;
36001;SDS011;22070;50.922;5.430;2022-09-13T12:54:35;3.95;;;2.30;;
36001;SDS011;22070;50.922;5.430;2022-09-13T13:05:23;4.95;;;2.35;;
36001;SDS011;22070;50.922;5.430;2022-09-13T13:07:56;6.82;;;2.53;;
36001;SDS011;22070;50.922;5.430;2022-09-13T13:13:14;3.85;;;1.83;;
36001;SDS011;22070;50.922;5.430;2022-09-13T13:23:21;4.30;;;2.03;;
36001;SDS011;22070;50.922;5.430;2022-09-13T13:31:08;3.35;;;2.50;;
36001;SDS011;22070;50.922;5.430;2022-09-13T13:33:47;4.30;;;2.00;;
36001;SDS011;22070;50.922;5.430;2022-09-13T13:39:08;2.53;;;2.30;;
36001;SDS011;22070;50.922;5.430;2022-09-13T13:41:43;4.38;;;2.17;;
36001;SDS011;22070;50.922;5.430;2022-09-13T13:46:43;4.70;;;2.40;;
36001;SDS011;22070;50.922;5.430;2022-09-13T14:07:54;2.95;;;2.10;;
36001;SDS011;22070;50.922;5.430;2022-09-13T14:10:45;2.95;;;1.90;;
36001;SDS011;22070;50.922;5.430;2022-09-13T14:13:23;6.80;;;2.20;;
36001;SDS011;22070;50.922;5.430;2022-09-13T14:18:36;4.28;;;1.92;;
36001;SDS011;22070;50.922;5.430;2022-09-13T14:21:16;5.80;;;2.22;;
36001;SDS011;22070;50.922;5.430;2022-09-13T14:23:44;3.08;;;2.10;;
36001;SDS011;22070;50.922;5.430;2022-09-13T14:26:10;2.83;;;1.93;;
36001;SDS011;22070;50.922;5.430;2022-09-13T14:31:03;2.13;;;1.77;;
36001;SDS011;22070;50.922;5.430;2022-09-13T14:33:31;3.38;;;1.88;;
36001;SDS011;22070;50.922;5.430;2022-09-13T14:38:28;3.30;;;1.80;;
36001;SDS011;22070;50.922;5.430;2022-09-13T14:41:01;2.65;;;2.10;;
36001;SDS011;22070;50.922;5.430;2022-09-13T14:43:37;5.63;;;2.00;;
36001;SDS011;22070;50.922;5.430;2022-09-13T14:46:11;2.05;;;1.70;;
36001;SDS011;22070;50.922;5.430;2022-09-13T14:54:26;8.07;;;2.10;;
36001;SDS011;22070;50.922;5.430;2022-09-13T14:57:05;3.45;;;2.33;;
36001;SDS011;22070;50.922;5.430;2022-09-13T14:59:41;5.03;;;2.20;;
36001;SDS011;22070;50.922;5.430;2022-09-13T15:02:19;3.63;;;2.60;;
36001;SDS011;22070;50.922;5.430;2022-09-13T15:04:55;4.22;;;2.47;;
36001;SDS011;22070;50.922;5.430;2022-09-13T15:07:28;6.88;;;2.38;;
36001;SDS011;22070;50.922;5.430;2022-09-13T15:10:06;6.20;;;2.33;;
36001;SDS011;22070;50.922;5.430;2022-09-13T15:12:36;2.53;;;2.30;;
36001;SDS011;22070;50.922;5.430;2022-09-13T15:15:19;3.83;;;2.20;;
36001;SDS011;22070;50.922;5.430;2022-09-13T15:23:27;5.70;;;2.30;;
36001;SDS011;22070;50.922;5.430;2022-09-13T15:28:57;4.13;;;2.10;;
36001;SDS011;22070;50.922;5.430;2022-09-13T15:31:24;3.80;;;1.98;;
36001;SDS011;22070;50.922;5.430;2022-09-13T15:36:43;5.95;;;2.00;;
36001;SDS011;22070;50.922;5.430;2022-09-13T15:39:17;3.53;;;2.17;;
36001;SDS011;22070;50.922;5.430;2022-09-13T15:41:51;3.28;;;2.38;;
36001;SDS011;22070;50.922;5.430;2022-09-13T15:44:18;7.13;;;2.85;;
36001;SDS011;22070;50.922;5.430;2022-09-13T15:46:46;5.43;;;2.65;;
36001;SDS011;22070;50.922;5.430;2022-09-13T15:49:16;5.47;;;3.25;;
36001;SDS011;22070;50.922;5.430;2022-09-13T15:51:44;4.78;;;2.47;;
36001;SDS011;22070;50.922;5.430;2022-09-13T15:54:11;3.67;;;2.70;;
36001;SDS011;22070;50.922;5.430;2022-09-13T15:56:40;6.63;;;2.80;;
36001;SDS011;22070;50.922;5.430;2022-09-13T15:59:15;6.05;;;2.90;;
36001;SDS011;22070;50.922;5.430;2022-09-13T16:01:43;8.18;;;2.92;;
36001;SDS011;22070;50.922;5.430;2022-09-13T16:04:11;5.28;;;3.05;;
36001;SDS011;22070;50.922;5.430;2022-09-13T16:06:37;5.17;;;2.80;;
36001;SDS011;22070;50.922;5.430;2022-09-13T16:11:45;4.95;;;2.50;;
36001;SDS011;22070;50.922;5.430;2022-09-13T16:14:12;6.35;;;2.92;;
36001;SDS011;22070;50.922;5.430;2022-09-13T16:16:38;8.13;;;3.30;;
36001;SDS011;22070;50.922;5.430;2022-09-13T16:19:04;9.53;;;2.93;;
36001;SDS011;22070;50.922;5.430;2022-09-13T16:21:29;4.50;;;2.80;;
36001;SDS011;22070;50.922;5.430;2022-09-13T16:23:55;6.23;;;3.00;;
36001;SDS011;22070;50.922;5.430;2022-09-13T16:26:20;5.83;;;2.83;;
36001;SDS011;22070;50.922;5.430;2022-09-13T16:28:46;4.27;;;3.00;;
36001;SDS011;22070;50.922;5.430;2022-09-13T16:31:12;4.85;;;3.10;;
36001;SDS011;22070;50.922;5.430;2022-09-13T16:33:40;7.70;;;3.10;;
36001;SDS011;22070;50.922;5.430;2022-09-13T16:36:07;6.70;;;3.37;;
36001;SDS011;22070;50.922;5.430;2022-09-13T16:38:35;8.48;;;3.75;;
36001;SDS011;22070;50.922;5.430;2022-09-13T16:41:03;10.40;;;3.47;;
36001;SDS011;22070;50.922;5.430;2022-09-13T16:43:29;7.25;;;4.03;;
36001;SDS011;22070;50.922;5.430;2022-09-13T16:45:57;6.45;;;4.03;;
36001;SDS011;22070;50.922;5.430;2022-09-13T16:48:23;9.57;;;4.45;;
36001;SDS011;22070;50.922;5.430;2022-09-13T16:50:49;9.77;;;4.30;;
36001;SDS011;22070;50.922;5.430;2022-09-13T16:53:15;7.23;;;4.53;;
36001;SDS011;22070;50.922;5.430;2022-09-13T16:55:40;6.97;;;4.70;;
36001;SDS011;22070;50.922;5.430;2022-09-13T16:58:06;10.32;;;5.00;;
36001;SDS011;22070;50.922;5.430;2022-09-13T17:00:32;10.93;;;5.10;;
36001;SDS011;22070;50.922;5.430;2022-09-13T17:02:58;8.93;;;4.88;;
36001;SDS011;22070;50.922;5.430;2022-09-13T17:05:24;5.03;;;4.40;;
36001;SDS011;22070;50.922;5.430;2022-09-13T17:07:50;9.37;;;4.43;;
36001;SDS011;22070;50.922;5.430;2022-09-13T17:10:17;8.60;;;4.43;;
36001;SDS011;22070;50.922;5.430;2022-09-13T17:12:43;11.45;;;5.07;;
36001;SDS011;22070;50.922;5.430;2022-09-13T17:15:09;8.00;;;4.97;;
36001;SDS011;22070;50.922;5.430;2022-09-13T17:17:35;10.65;;;5.20;;
36001;SDS011;22070;50.922;5.430;2022-09-13T17:20:03;11.20;;;6.00;;
36001;SDS011;22070;50.922;5.430;2022-09-13T17:22:32;8.07;;;5.55;;
36001;SDS011;22070;50.922;5.430;2022-09-13T17:24:58;8.10;;;5.47;;
36001;SDS011;22070;50.922;5.430;2022-09-13T17:27:25;7.93;;;5.45;;
36001;SDS011;22070;50.922;5.430;2022-09-13T17:29:51;10.52;;;5.90;;
36001;SDS011;22070;50.922;5.430;2022-09-13T17:32:17;13.90;;;6.10;;
36001;SDS011;22070;50.922;5.430;2022-09-13T17:34:44;9.10;;;5.15;;
36001;SDS011;22070;50.922;5.430;2022-09-13T17:37:09;9.37;;;4.93;;
36001;SDS011;22070;50.922;5.430;2022-09-13T17:39:35;6.73;;;4.47;;
36001;SDS011;22070;50.922;5.430;2022-09-13T17:42:01;7.20;;;5.00;;
36001;SDS011;22070;50.922;5.430;2022-09-13T17:44:27;8.93;;;4.67;;
36001;SDS011;22070;50.922;5.430;2022-09-13T17:46:52;7.07;;;4.80;;
36001;SDS011;22070;50.922;5.430;2022-09-13T17:49:18;5.13;;;4.57;;
36001;SDS011;22070;50.922;5.430;2022-09-13T17:51:44;8.53;;;4.87;;
36001;SDS011;22070;50.922;5.430;2022-09-13T17:54:10;8.93;;;5.10;;
36001;SDS011;22070;50.922;5.430;2022-09-13T17:56:42;9.15;;;5.45;;
36001;SDS011;22070;50.922;5.430;2022-09-13T17:59:13;9.48;;;5.93;;
36001;SDS011;22070;50.922;5.430;2022-09-13T18:01:41;8.23;;;5.65;;
36001;SDS011;22070;50.922;5.430;2022-09-13T18:04:12;11.15;;;6.53;;
36001;SDS011;22070;50.922;5.430;2022-09-13T18:06:39;11.23;;;6.15;;
36001;SDS011;22070;50.922;5.430;2022-09-13T18:09:07;9.00;;;5.60;;
36001;SDS011;22070;50.922;5.430;2022-09-13T18:11:34;7.93;;;5.93;;
36001;SDS011;22070;50.922;5.430;2022-09-13T18:14:00;13.57;;;6.07;;
36001;SDS011;22070;50.922;5.430;2022-09-13T18:16:27;12.07;;;6.32;;
36001;SDS011;22070;50.922;5.430;2022-09-13T18:18:53;13.02;;;6.85;;
36001;SDS011;22070;50.922;5.430;2022-09-13T18:21:20;14.35;;;7.35;;
36001;SDS011;22070;50.922;5.430;2022-09-13T18:23:48;12.77;;;7.10;;
36001;SDS011;22070;50.922;5.430;2022-09-13T18:26:16;16.83;;;7.95;;
36001;SDS011;22070;50.922;5.430;2022-09-13T18:28:43;9.65;;;7.35;;
36001;SDS011;22070;50.922;5.430;2022-09-13T18:31:12;14.63;;;8.43;;
36001;SDS011;22070;50.922;5.430;2022-09-13T18:33:40;13.82;;;9.40;;
36001;SDS011;22070;50.922;5.430;2022-09-13T18:36:08;12.77;;;8.57;;
36001;SDS011;22070;50.922;5.430;2022-09-13T18:38:45;17.98;;;9.02;;
36001;SDS011;22070;50.922;5.430;2022-09-13T18:41:17;14.60;;;9.75;;
36001;SDS011;22070;50.922;5.430;2022-09-13T18:43:45;13.30;;;9.63;;
36001;SDS011;22070;50.922;5.430;2022-09-13T18:46:13;11.57;;;9.13;;
36001;SDS011;22070;50.922;5.430;2022-09-13T18:48:41;11.82;;;9.23;;
36001;SDS011;22070;50.922;5.430;2022-09-13T18:51:12;16.02;;;9.93;;
36001;SDS011;22070;50.922;5.430;2022-09-13T18:53:39;12.80;;;9.50;;
36001;SDS011;22070;50.922;5.430;2022-09-13T18:56:06;15.87;;;10.60;;
36001;SDS011;22070;50.922;5.430;2022-09-13T18:58:35;16.70;;;10.50;;
36001;SDS011;22070;50.922;5.430;2022-09-13T19:01:05;21.90;;;10.45;;